sensor_id;sensor_type;location;lat;lon;timestamp;pressure;altitude;pressure_sealevel;temperature
5571;BMP180;2808;51.240;6.794;2023-07-13T00:00:50;101043.00;;;19.20
5571;BMP180;2808;51.240;6.794;2023-07-13T00:03:18;101042.00;;;19.10
5571;BMP180;2808;51.240;6.794;2023-07-13T00:05:45;101034.00;;;19.10
5571;BMP180;2808;51.240;6.794;2023-07-13T00:08:14;101032.00;;;19.00
5571;BMP180;2808;51.240;6.794;2023-07-13T00:10:42;101044.00;;;19.00
5571;BMP180;2808;51.240;6.794;2023-07-13T00:13:13;101049.00;;;19.00
5571;BMP180;2808;51.240;6.794;2023-07-13T00:15:40;101047.00;;;18.90
5571;BMP180;2808;51.240;6.794;2023-07-13T00:18:07;101049.00;;;18.80
5571;BMP180;2808;51.240;6.794;2023-07-13T00:20:35;101049.00;;;18.80
5571;BMP180;2808;51.240;6.794;2023-07-13T00:23:02;101050.00;;;18.80
5571;BMP180;2808;51.240;6.794;2023-07-13T00:25:30;101042.00;;;18.80
5571;BMP180;2808;51.240;6.794;2023-07-13T00:27:57;101044.00;;;18.70
5571;BMP180;2808;51.240;6.794;2023-07-13T00:30:26;101049.00;;;18.70
5571;BMP180;2808;51.240;6.794;2023-07-13T00:32:54;101038.00;;;18.60
5571;BMP180;2808;51.240;6.794;2023-07-13T00:35:22;101055.00;;;18.60
5571;BMP180;2808;51.240;6.794;2023-07-13T00:37:51;101047.00;;;18.60
5571;BMP180;2808;51.240;6.794;2023-07-13T00:40:18;101053.00;;;18.60
5571;BMP180;2808;51.240;6.794;2023-07-13T00:42:46;101049.00;;;18.50
5571;BMP180;2808;51.240;6.794;2023-07-13T00:48:21;101042.00;;;18.50
5571;BMP180;2808;51.240;6.794;2023-07-13T00:50:53;101046.00;;;18.50
5571;BMP180;2808;51.240;6.794;2023-07-13T00:53:22;101050.00;;;18.50
5571;BMP180;2808;51.240;6.794;2023-07-13T00:55:51;101042.00;;;18.50
5571;BMP180;2808;51.240;6.794;2023-07-13T00:58:20;101042.00;;;18.50
5571;BMP180;2808;51.240;6.794;2023-07-13T01:00:49;101045.00;;;18.40
5571;BMP180;2808;51.240;6.794;2023-07-13T01:03:20;101041.00;;;18.40
5571;BMP180;2808;51.240;6.794;2023-07-13T01:05:50;101045.00;;;18.40
5571;BMP180;2808;51.240;6.794;2023-07-13T01:08:20;101038.00;;;18.40
5571;BMP180;2808;51.240;6.794;2023-07-13T01:10:52;101040.00;;;18.30
5571;BMP180;2808;51.240;6.794;2023-07-13T01:13:20;101041.00;;;18.30
5571;BMP180;2808;51.240;6.794;2023-07-13T01:15:49;101036.00;;;18.20
5571;BMP180;2808;51.240;6.794;2023-07-13T01:18:21;101034.00;;;18.20
5571;BMP180;2808;51.240;6.794;2023-07-13T01:20:55;101036.00;;;18.20
5571;BMP180;2808;51.240;6.794;2023-07-13T01:23:23;101037.00;;;18.20
5571;BMP180;2808;51.240;6.794;2023-07-13T01:25:51;101036.00;;;18.20
5571;BMP180;2808;51.240;6.794;2023-07-13T01:28:19;101047.00;;;18.20
5571;BMP180;2808;51.240;6.794;2023-07-13T01:30:47;101039.00;;;18.10
5571;BMP180;2808;51.240;6.794;2023-07-13T01:33:16;101039.00;;;18.10
5571;BMP180;2808;51.240;6.794;2023-07-13T01:35:44;101040.00;;;18.00
5571;BMP180;2808;51.240;6.794;2023-07-13T01:38:14;101039.00;;;18.00
5571;BMP180;2808;51.240;6.794;2023-07-13T01:40:42;101032.00;;;18.00
5571;BMP180;2808;51.240;6.794;2023-07-13T01:43:10;101044.00;;;18.00
5571;BMP180;2808;51.240;6.794;2023-07-13T01:45:38;101046.00;;;18.00
5571;BMP180;2808;51.240;6.794;2023-07-13T01:48:05;101046.00;;;18.00
5571;BMP180;2808;51.240;6.794;2023-07-13T01:50:33;101046.00;;;17.90
5571;BMP180;2808;51.240;6.794;2023-07-13T01:53:01;101047.00;;;17.90
5571;BMP180;2808;51.240;6.794;2023-07-13T01:55:30;101038.00;;;17.90
5571;BMP180;2808;51.240;6.794;2023-07-13T01:57:58;101035.00;;;17.90
5571;BMP180;2808;51.240;6.794;2023-07-13T02:00:25;101041.00;;;17.80
5571;BMP180;2808;51.240;6.794;2023-07-13T02:02:53;101045.00;;;17.80
5571;BMP180;2808;51.240;6.794;2023-07-13T02:05:20;101041.00;;;17.80
5571;BMP180;2808;51.240;6.794;2023-07-13T02:07:48;101043.00;;;17.70
5571;BMP180;2808;51.240;6.794;2023-07-13T02:10:18;101048.00;;;17.70
5571;BMP180;2808;51.240;6.794;2023-07-13T02:12:49;101054.00;;;17.70
5571;BMP180;2808;51.240;6.794;2023-07-13T02:15:17;101045.00;;;17.70
5571;BMP180;2808;51.240;6.794;2023-07-13T02:17:44;101044.00;;;17.70
5571;BMP180;2808;51.240;6.794;2023-07-13T02:20:12;101048.00;;;17.60
5571;BMP180;2808;51.240;6.794;2023-07-13T02:22:39;101050.00;;;17.60
5571;BMP180;2808;51.240;6.794;2023-07-13T02:25:07;101051.00;;;17.60
5571;BMP180;2808;51.240;6.794;2023-07-13T02:27:34;101050.00;;;17.50
5571;BMP180;2808;51.240;6.794;2023-07-13T02:30:04;101053.00;;;17.50
5571;BMP180;2808;51.240;6.794;2023-07-13T02:32:31;101052.00;;;17.60
5571;BMP180;2808;51.240;6.794;2023-07-13T02:34:59;101054.00;;;17.50
5571;BMP180;2808;51.240;6.794;2023-07-13T02:37:27;101058.00;;;17.50
5571;BMP180;2808;51.240;6.794;2023-07-13T02:39:54;101058.00;;;17.50
5571;BMP180;2808;51.240;6.794;2023-07-13T02:42:21;101045.00;;;17.40
5571;BMP180;2808;51.240;6.794;2023-07-13T02:44:49;101049.00;;;17.40
5571;BMP180;2808;51.240;6.794;2023-07-13T02:47:18;101056.00;;;17.40
5571;BMP180;2808;51.240;6.794;2023-07-13T02:49:45;101052.00;;;17.40
5571;BMP180;2808;51.240;6.794;2023-07-13T02:52:13;101060.00;;;17.30
5571;BMP180;2808;51.240;6.794;2023-07-13T02:54:40;101051.00;;;17.30
5571;BMP180;2808;51.240;6.794;2023-07-13T02:57:07;101061.00;;;17.30
5571;BMP180;2808;51.240;6.794;2023-07-13T02:59:35;101062.00;;;17.30
5571;BMP180;2808;51.240;6.794;2023-07-13T03:02:03;101058.00;;;17.30
5571;BMP180;2808;51.240;6.794;2023-07-13T03:04:32;101061.00;;;17.30
5571;BMP180;2808;51.240;6.794;2023-07-13T03:06:58;101065.00;;;17.20
5571;BMP180;2808;51.240;6.794;2023-07-13T03:09:25;101058.00;;;17.20
5571;BMP180;2808;51.240;6.794;2023-07-13T03:11:53;101064.00;;;17.20
5571;BMP180;2808;51.240;6.794;2023-07-13T03:14:22;101061.00;;;17.20
5571;BMP180;2808;51.240;6.794;2023-07-13T03:16:49;101062.00;;;17.20
5571;BMP180;2808;51.240;6.794;2023-07-13T03:19:18;101072.00;;;17.20
5571;BMP180;2808;51.240;6.794;2023-07-13T03:21:46;101068.00;;;17.20
5571;BMP180;2808;51.240;6.794;2023-07-13T03:24:14;101069.00;;;17.20
5571;BMP180;2808;51.240;6.794;2023-07-13T03:26:41;101059.00;;;17.20
5571;BMP180;2808;51.240;6.794;2023-07-13T03:29:09;101075.00;;;17.20
5571;BMP180;2808;51.240;6.794;2023-07-13T03:31:37;101072.00;;;17.20
5571;BMP180;2808;51.240;6.794;2023-07-13T03:34:04;101072.00;;;17.20
5571;BMP180;2808;51.240;6.794;2023-07-13T03:36:32;101074.00;;;17.30
5571;BMP180;2808;51.240;6.794;2023-07-13T03:39:03;101072.00;;;17.20
5571;BMP180;2808;51.240;6.794;2023-07-13T03:41:32;101081.00;;;17.20
5571;BMP180;2808;51.240;6.794;2023-07-13T03:43:59;101083.00;;;17.30
5571;BMP180;2808;51.240;6.794;2023-07-13T03:46:27;101074.00;;;17.20
5571;BMP180;2808;51.240;6.794;2023-07-13T03:48:55;101078.00;;;17.20
5571;BMP180;2808;51.240;6.794;2023-07-13T03:51:22;101085.00;;;17.30
5571;BMP180;2808;51.240;6.794;2023-07-13T03:53:52;101086.00;;;17.30
5571;BMP180;2808;51.240;6.794;2023-07-13T03:56:21;101094.00;;;17.30
5571;BMP180;2808;51.240;6.794;2023-07-13T03:58:50;101101.00;;;17.40
5571;BMP180;2808;51.240;6.794;2023-07-13T04:01:20;101096.00;;;17.40
5571;BMP180;2808;51.240;6.794;2023-07-13T04:03:47;101110.00;;;17.30
5571;BMP180;2808;51.240;6.794;2023-07-13T04:06:18;101107.00;;;17.40
5571;BMP180;2808;51.240;6.794;2023-07-13T04:08:48;101112.00;;;17.40
5571;BMP180;2808;51.240;6.794;2023-07-13T04:11:17;101112.00;;;17.40
5571;BMP180;2808;51.240;6.794;2023-07-13T04:13:49;101116.00;;;17.50
5571;BMP180;2808;51.240;6.794;2023-07-13T04:16:17;101114.00;;;17.60
5571;BMP180;2808;51.240;6.794;2023-07-13T04:18:45;101124.00;;;17.70
5571;BMP180;2808;51.240;6.794;2023-07-13T04:21:14;101119.00;;;17.80
5571;BMP180;2808;51.240;6.794;2023-07-13T04:23:41;101112.00;;;17.80
5571;BMP180;2808;51.240;6.794;2023-07-13T04:26:09;101111.00;;;17.90
5571;BMP180;2808;51.240;6.794;2023-07-13T04:28:37;101105.00;;;17.90
5571;BMP180;2808;51.240;6.794;2023-07-13T04:31:06;101116.00;;;17.90
5571;BMP180;2808;51.240;6.794;2023-07-13T04:33:37;101116.00;;;17.90
5571;BMP180;2808;51.240;6.794;2023-07-13T04:36:05;101120.00;;;17.90
5571;BMP180;2808;51.240;6.794;2023-07-13T04:38:35;101118.00;;;17.90
5571;BMP180;2808;51.240;6.794;2023-07-13T04:41:05;101122.00;;;17.90
5571;BMP180;2808;51.240;6.794;2023-07-13T04:43:33;101116.00;;;18.00
5571;BMP180;2808;51.240;6.794;2023-07-13T04:46:05;101119.00;;;17.90
5571;BMP180;2808;51.240;6.794;2023-07-13T04:48:33;101123.00;;;17.90
5571;BMP180;2808;51.240;6.794;2023-07-13T04:51:01;101127.00;;;18.10
5571;BMP180;2808;51.240;6.794;2023-07-13T04:53:29;101125.00;;;18.20
5571;BMP180;2808;51.240;6.794;2023-07-13T04:55:57;101127.00;;;18.20
5571;BMP180;2808;51.240;6.794;2023-07-13T04:58:24;101124.00;;;18.30
5571;BMP180;2808;51.240;6.794;2023-07-13T05:00:52;101128.00;;;18.40
5571;BMP180;2808;51.240;6.794;2023-07-13T05:03:21;101127.00;;;18.40
5571;BMP180;2808;51.240;6.794;2023-07-13T05:05:55;101141.00;;;18.60
5571;BMP180;2808;51.240;6.794;2023-07-13T05:08:23;101133.00;;;18.70
5571;BMP180;2808;51.240;6.794;2023-07-13T05:10:50;101142.00;;;18.80
5571;BMP180;2808;51.240;6.794;2023-07-13T05:13:18;101138.00;;;18.60
5571;BMP180;2808;51.240;6.794;2023-07-13T05:15:47;101143.00;;;18.70
5571;BMP180;2808;51.240;6.794;2023-07-13T05:18:15;101141.00;;;18.90
5571;BMP180;2808;51.240;6.794;2023-07-13T05:20:57;101145.00;;;19.10
5571;BMP180;2808;51.240;6.794;2023-07-13T05:23:25;101141.00;;;19.50
5571;BMP180;2808;51.240;6.794;2023-07-13T05:25:52;101133.00;;;20.60
5571;BMP180;2808;51.240;6.794;2023-07-13T05:28:20;101143.00;;;22.10
5571;BMP180;2808;51.240;6.794;2023-07-13T05:30:48;101136.00;;;22.90
5571;BMP180;2808;51.240;6.794;2023-07-13T05:33:15;101139.00;;;23.00
5571;BMP180;2808;51.240;6.794;2023-07-13T05:35:43;101156.00;;;23.20
5571;BMP180;2808;51.240;6.794;2023-07-13T05:38:11;101152.00;;;23.20
5571;BMP180;2808;51.240;6.794;2023-07-13T05:40:39;101156.00;;;23.40
5571;BMP180;2808;51.240;6.794;2023-07-13T05:43:06;101156.00;;;23.80
5571;BMP180;2808;51.240;6.794;2023-07-13T05:45:34;101161.00;;;23.50
5571;BMP180;2808;51.240;6.794;2023-07-13T05:48:01;101160.00;;;23.50
5571;BMP180;2808;51.240;6.794;2023-07-13T05:50:28;101159.00;;;23.80
5571;BMP180;2808;51.240;6.794;2023-07-13T05:52:56;101161.00;;;23.90
5571;BMP180;2808;51.240;6.794;2023-07-13T05:55:25;101166.00;;;24.30
5571;BMP180;2808;51.240;6.794;2023-07-13T05:57:52;101165.00;;;24.40
5571;BMP180;2808;51.240;6.794;2023-07-13T06:00:24;101172.00;;;24.30
5571;BMP180;2808;51.240;6.794;2023-07-13T06:02:52;101169.00;;;24.30
5571;BMP180;2808;51.240;6.794;2023-07-13T06:05:20;101175.00;;;24.10
5571;BMP180;2808;51.240;6.794;2023-07-13T06:07:47;101179.00;;;24.10
5571;BMP180;2808;51.240;6.794;2023-07-13T06:10:15;101184.00;;;24.20
5571;BMP180;2808;51.240;6.794;2023-07-13T06:12:43;101185.00;;;24.80
5571;BMP180;2808;51.240;6.794;2023-07-13T06:15:13;101182.00;;;25.20
5571;BMP180;2808;51.240;6.794;2023-07-13T06:17:40;101187.00;;;25.40
5571;BMP180;2808;51.240;6.794;2023-07-13T06:20:11;101191.00;;;25.70
5571;BMP180;2808;51.240;6.794;2023-07-13T06:22:39;101191.00;;;25.80
5571;BMP180;2808;51.240;6.794;2023-07-13T06:25:07;101194.00;;;25.90
5571;BMP180;2808;51.240;6.794;2023-07-13T06:27:35;101197.00;;;26.20
5571;BMP180;2808;51.240;6.794;2023-07-13T06:30:31;101204.00;;;26.10
5571;BMP180;2808;51.240;6.794;2023-07-13T06:33:05;101206.00;;;25.90
5571;BMP180;2808;51.240;6.794;2023-07-13T06:35:35;101208.00;;;25.60
5571;BMP180;2808;51.240;6.794;2023-07-13T06:38:08;101207.00;;;25.20
5571;BMP180;2808;51.240;6.794;2023-07-13T06:40:49;101208.00;;;24.70
5571;BMP180;2808;51.240;6.794;2023-07-13T06:43:21;101217.00;;;24.30
5571;BMP180;2808;51.240;6.794;2023-07-13T06:45:51;101218.00;;;24.20
5571;BMP180;2808;51.240;6.794;2023-07-13T06:48:19;101208.00;;;24.00
5571;BMP180;2808;51.240;6.794;2023-07-13T06:50:48;101216.00;;;23.50
5571;BMP180;2808;51.240;6.794;2023-07-13T06:53:18;101229.00;;;23.10
5571;BMP180;2808;51.240;6.794;2023-07-13T06:55:51;101227.00;;;22.60
5571;BMP180;2808;51.240;6.794;2023-07-13T06:58:34;101230.00;;;22.10
5571;BMP180;2808;51.240;6.794;2023-07-13T07:01:06;101230.00;;;21.80
5571;BMP180;2808;51.240;6.794;2023-07-13T07:03:37;101242.00;;;21.70
5571;BMP180;2808;51.240;6.794;2023-07-13T07:06:14;101236.00;;;21.50
5571;BMP180;2808;51.240;6.794;2023-07-13T07:08:45;101241.00;;;21.40
5571;BMP180;2808;51.240;6.794;2023-07-13T07:11:18;101245.00;;;21.20
5571;BMP180;2808;51.240;6.794;2023-07-13T07:13:45;101247.00;;;21.20
5571;BMP180;2808;51.240;6.794;2023-07-13T07:16:14;101245.00;;;21.10
5571;BMP180;2808;51.240;6.794;2023-07-13T07:18:44;101245.00;;;21.10
5571;BMP180;2808;51.240;6.794;2023-07-13T07:21:12;101253.00;;;21.10
5571;BMP180;2808;51.240;6.794;2023-07-13T07:23:40;101247.00;;;21.30
5571;BMP180;2808;51.240;6.794;2023-07-13T07:26:08;101246.00;;;21.60
5571;BMP180;2808;51.240;6.794;2023-07-13T07:28:36;101245.00;;;21.90
5571;BMP180;2808;51.240;6.794;2023-07-13T07:31:03;101243.00;;;22.10
5571;BMP180;2808;51.240;6.794;2023-07-13T07:33:33;101244.00;;;22.30
5571;BMP180;2808;51.240;6.794;2023-07-13T07:36:02;101250.00;;;22.10
5571;BMP180;2808;51.240;6.794;2023-07-13T07:38:30;101252.00;;;21.90
5571;BMP180;2808;51.240;6.794;2023-07-13T07:40:58;101240.00;;;21.70
5571;BMP180;2808;51.240;6.794;2023-07-13T07:43:25;101246.00;;;21.70
5571;BMP180;2808;51.240;6.794;2023-07-13T07:45:53;101247.00;;;21.70
5571;BMP180;2808;51.240;6.794;2023-07-13T07:48:20;101252.00;;;22.50
5571;BMP180;2808;51.240;6.794;2023-07-13T07:50:49;101237.00;;;23.10
5571;BMP180;2808;51.240;6.794;2023-07-13T07:53:16;101243.00;;;23.70
5571;BMP180;2808;51.240;6.794;2023-07-13T07:55:44;101250.00;;;23.90
5571;BMP180;2808;51.240;6.794;2023-07-13T07:58:11;101243.00;;;23.70
5571;BMP180;2808;51.240;6.794;2023-07-13T08:00:39;101238.00;;;24.00
5571;BMP180;2808;51.240;6.794;2023-07-13T08:03:06;101240.00;;;24.30
5571;BMP180;2808;51.240;6.794;2023-07-13T08:05:35;101238.00;;;24.80
5571;BMP180;2808;51.240;6.794;2023-07-13T08:08:05;101241.00;;;25.10
5571;BMP180;2808;51.240;6.794;2023-07-13T08:10:34;101241.00;;;25.40
5571;BMP180;2808;51.240;6.794;2023-07-13T08:13:02;101239.00;;;25.40
5571;BMP180;2808;51.240;6.794;2023-07-13T08:15:29;101246.00;;;25.10
5571;BMP180;2808;51.240;6.794;2023-07-13T08:17:56;101242.00;;;24.80
5571;BMP180;2808;51.240;6.794;2023-07-13T08:20:24;101238.00;;;24.40
5571;BMP180;2808;51.240;6.794;2023-07-13T08:22:51;101238.00;;;24.30
5571;BMP180;2808;51.240;6.794;2023-07-13T08:25:20;101227.00;;;24.30
5571;BMP180;2808;51.240;6.794;2023-07-13T08:27:48;101234.00;;;24.40
5571;BMP180;2808;51.240;6.794;2023-07-13T08:30:16;101227.00;;;24.40
5571;BMP180;2808;51.240;6.794;2023-07-13T08:32:44;101229.00;;;24.40
5571;BMP180;2808;51.240;6.794;2023-07-13T08:35:11;101232.00;;;24.40
5571;BMP180;2808;51.240;6.794;2023-07-13T08:37:39;101228.00;;;24.40
5571;BMP180;2808;51.240;6.794;2023-07-13T08:40:09;101228.00;;;24.40
5571;BMP180;2808;51.240;6.794;2023-07-13T08:42:42;101231.00;;;24.60
5571;BMP180;2808;51.240;6.794;2023-07-13T08:45:21;101225.00;;;24.50
5571;BMP180;2808;51.240;6.794;2023-07-13T08:47:57;101227.00;;;24.40
5571;BMP180;2808;51.240;6.794;2023-07-13T08:50:32;101226.00;;;24.20
5571;BMP180;2808;51.240;6.794;2023-07-13T08:53:02;101221.00;;;24.30
5571;BMP180;2808;51.240;6.794;2023-07-13T08:55:33;101223.00;;;24.40
5571;BMP180;2808;51.240;6.794;2023-07-13T08:58:09;101227.00;;;24.60
5571;BMP180;2808;51.240;6.794;2023-07-13T09:00:42;101223.00;;;24.70
5571;BMP180;2808;51.240;6.794;2023-07-13T09:03:19;101228.00;;;24.50
5571;BMP180;2808;51.240;6.794;2023-07-13T09:05:51;101220.00;;;24.40
5571;BMP180;2808;51.240;6.794;2023-07-13T09:08:34;101220.00;;;24.40
5571;BMP180;2808;51.240;6.794;2023-07-13T09:11:17;101231.00;;;24.30
5571;BMP180;2808;51.240;6.794;2023-07-13T09:13:57;101237.00;;;24.10
5571;BMP180;2808;51.240;6.794;2023-07-13T09:16:26;101244.00;;;24.10
5571;BMP180;2808;51.240;6.794;2023-07-13T09:18:56;101240.00;;;23.90
5571;BMP180;2808;51.240;6.794;2023-07-13T09:21:31;101245.00;;;24.00
5571;BMP180;2808;51.240;6.794;2023-07-13T09:24:06;101242.00;;;24.20
5571;BMP180;2808;51.240;6.794;2023-07-13T09:26:43;101236.00;;;24.30
5571;BMP180;2808;51.240;6.794;2023-07-13T09:29:22;101233.00;;;24.40
5571;BMP180;2808;51.240;6.794;2023-07-13T09:31:56;101232.00;;;24.60
5571;BMP180;2808;51.240;6.794;2023-07-13T09:34:25;101240.00;;;24.40
5571;BMP180;2808;51.240;6.794;2023-07-13T09:36:53;101240.00;;;24.30
5571;BMP180;2808;51.240;6.794;2023-07-13T09:39:27;101244.00;;;23.80
5571;BMP180;2808;51.240;6.794;2023-07-13T09:42:00;101246.00;;;23.60
5571;BMP180;2808;51.240;6.794;2023-07-13T09:44:33;101244.00;;;23.90
5571;BMP180;2808;51.240;6.794;2023-07-13T09:47:01;101249.00;;;24.20
5571;BMP180;2808;51.240;6.794;2023-07-13T09:49:33;101245.00;;;24.10
5571;BMP180;2808;51.240;6.794;2023-07-13T09:52:04;101247.00;;;24.10
5571;BMP180;2808;51.240;6.794;2023-07-13T09:54:34;101262.00;;;24.20
5571;BMP180;2808;51.240;6.794;2023-07-13T09:57:03;101244.00;;;24.30
5571;BMP180;2808;51.240;6.794;2023-07-13T09:59:37;101256.00;;;24.30
5571;BMP180;2808;51.240;6.794;2023-07-13T10:02:27;101259.00;;;24.60
5571;BMP180;2808;51.240;6.794;2023-07-13T10:05:00;101261.00;;;24.70
5571;BMP180;2808;51.240;6.794;2023-07-13T10:07:30;101258.00;;;24.70
5571;BMP180;2808;51.240;6.794;2023-07-13T10:09:59;101261.00;;;24.80
5571;BMP180;2808;51.240;6.794;2023-07-13T10:12:29;101265.00;;;24.80
5571;BMP180;2808;51.240;6.794;2023-07-13T10:15:00;101269.00;;;24.70
5571;BMP180;2808;51.240;6.794;2023-07-13T10:17:32;101272.00;;;24.70
5571;BMP180;2808;51.240;6.794;2023-07-13T10:20:02;101250.00;;;24.90
5571;BMP180;2808;51.240;6.794;2023-07-13T10:22:39;101257.00;;;24.90
5571;BMP180;2808;51.240;6.794;2023-07-13T10:25:19;101251.00;;;25.10
5571;BMP180;2808;51.240;6.794;2023-07-13T10:27:50;101264.00;;;25.00
5571;BMP180;2808;51.240;6.794;2023-07-13T10:30:23;101258.00;;;24.90
5571;BMP180;2808;51.240;6.794;2023-07-13T10:32:57;101268.00;;;24.90
5571;BMP180;2808;51.240;6.794;2023-07-13T10:35:29;101261.00;;;24.90
5571;BMP180;2808;51.240;6.794;2023-07-13T10:38:01;101267.00;;;25.10
5571;BMP180;2808;51.240;6.794;2023-07-13T10:40:36;101270.00;;;25.10
5571;BMP180;2808;51.240;6.794;2023-07-13T10:43:06;101266.00;;;25.10
5571;BMP180;2808;51.240;6.794;2023-07-13T10:45:38;101270.00;;;25.10
5571;BMP180;2808;51.240;6.794;2023-07-13T10:48:06;101271.00;;;24.90
5571;BMP180;2808;51.240;6.794;2023-07-13T10:50:38;101273.00;;;24.70
5571;BMP180;2808;51.240;6.794;2023-07-13T10:53:20;101266.00;;;24.50
5571;BMP180;2808;51.240;6.794;2023-07-13T10:55:59;101278.00;;;24.50
5571;BMP180;2808;51.240;6.794;2023-07-13T10:58:34;101284.00;;;24.30
5571;BMP180;2808;51.240;6.794;2023-07-13T11:01:08;101280.00;;;24.30
5571;BMP180;2808;51.240;6.794;2023-07-13T11:03:47;101277.00;;;24.40
5571;BMP180;2808;51.240;6.794;2023-07-13T11:06:27;101268.00;;;24.60
5571;BMP180;2808;51.240;6.794;2023-07-13T11:08:58;101268.00;;;24.70
5571;BMP180;2808;51.240;6.794;2023-07-13T11:11:35;101276.00;;;24.70
5571;BMP180;2808;51.240;6.794;2023-07-13T11:14:05;101272.00;;;24.60
5571;BMP180;2808;51.240;6.794;2023-07-13T11:16:53;101259.00;;;24.50
5571;BMP180;2808;51.240;6.794;2023-07-13T11:19:39;101264.00;;;24.50
5571;BMP180;2808;51.240;6.794;2023-07-13T11:22:16;101257.00;;;24.70
5571;BMP180;2808;51.240;6.794;2023-07-13T11:24:51;101258.00;;;24.80
5571;BMP180;2808;51.240;6.794;2023-07-13T11:27:38;101263.00;;;24.70
5571;BMP180;2808;51.240;6.794;2023-07-13T11:30:25;101261.00;;;24.40
5571;BMP180;2808;51.240;6.794;2023-07-13T11:33:13;101257.00;;;24.30
5571;BMP180;2808;51.240;6.794;2023-07-13T11:35:53;101255.00;;;24.10
5571;BMP180;2808;51.240;6.794;2023-07-13T11:38:35;101253.00;;;23.90
5571;BMP180;2808;51.240;6.794;2023-07-13T11:41:05;101250.00;;;23.90
5571;BMP180;2808;51.240;6.794;2023-07-13T11:43:33;101242.00;;;24.10
5571;BMP180;2808;51.240;6.794;2023-07-13T11:46:17;101246.00;;;24.10
5571;BMP180;2808;51.240;6.794;2023-07-13T11:48:49;101249.00;;;24.10
5571;BMP180;2808;51.240;6.794;2023-07-13T11:51:21;101248.00;;;24.20
5571;BMP180;2808;51.240;6.794;2023-07-13T11:53:51;101242.00;;;24.20
5571;BMP180;2808;51.240;6.794;2023-07-13T11:56:19;101236.00;;;24.30
5571;BMP180;2808;51.240;6.794;2023-07-13T11:58:50;101238.00;;;24.30
5571;BMP180;2808;51.240;6.794;2023-07-13T12:01:20;101228.00;;;24.40
5571;BMP180;2808;51.240;6.794;2023-07-13T12:03:50;101234.00;;;24.40
5571;BMP180;2808;51.240;6.794;2023-07-13T12:06:27;101231.00;;;24.30
5571;BMP180;2808;51.240;6.794;2023-07-13T12:08:58;101232.00;;;24.50
5571;BMP180;2808;51.240;6.794;2023-07-13T12:11:27;101234.00;;;24.70
5571;BMP180;2808;51.240;6.794;2023-07-13T12:13:54;101233.00;;;24.90
5571;BMP180;2808;51.240;6.794;2023-07-13T12:16:29;101223.00;;;24.60
5571;BMP180;2808;51.240;6.794;2023-07-13T12:19:01;101222.00;;;24.50
5571;BMP180;2808;51.240;6.794;2023-07-13T12:21:31;101223.00;;;24.50
5571;BMP180;2808;51.240;6.794;2023-07-13T12:24:02;101216.00;;;24.60
5571;BMP180;2808;51.240;6.794;2023-07-13T12:26:33;101219.00;;;24.80
5571;BMP180;2808;51.240;6.794;2023-07-13T12:29:04;101223.00;;;25.10
5571;BMP180;2808;51.240;6.794;2023-07-13T12:31:35;101225.00;;;25.10
5571;BMP180;2808;51.240;6.794;2023-07-13T12:34:09;101230.00;;;25.20
5571;BMP180;2808;51.240;6.794;2023-07-13T12:36:38;101221.00;;;25.30
5571;BMP180;2808;51.240;6.794;2023-07-13T12:39:37;101230.00;;;25.50
5571;BMP180;2808;51.240;6.794;2023-07-13T12:42:20;101230.00;;;25.50
5571;BMP180;2808;51.240;6.794;2023-07-13T12:52:15;101234.00;;;25.70
5571;BMP180;2808;51.240;6.794;2023-07-13T12:54:52;101225.00;;;25.70
5571;BMP180;2808;51.240;6.794;2023-07-13T12:57:19;101234.00;;;25.60
5571;BMP180;2808;51.240;6.794;2023-07-13T12:59:47;101230.00;;;25.40
5571;BMP180;2808;51.240;6.794;2023-07-13T13:02:26;101232.00;;;25.30
5571;BMP180;2808;51.240;6.794;2023-07-13T13:04:55;101235.00;;;25.00
5571;BMP180;2808;51.240;6.794;2023-07-13T13:07:25;101223.00;;;24.90
5571;BMP180;2808;51.240;6.794;2023-07-13T13:09:53;101230.00;;;25.00
5571;BMP180;2808;51.240;6.794;2023-07-13T13:12:21;101225.00;;;25.20
5571;BMP180;2808;51.240;6.794;2023-07-13T13:14:50;101235.00;;;25.20
5571;BMP180;2808;51.240;6.794;2023-07-13T13:17:36;101234.00;;;25.10
5571;BMP180;2808;51.240;6.794;2023-07-13T13:20:12;101227.00;;;25.10
5571;BMP180;2808;51.240;6.794;2023-07-13T13:22:44;101232.00;;;25.20
5571;BMP180;2808;51.240;6.794;2023-07-13T13:25:12;101225.00;;;25.30
5571;BMP180;2808;51.240;6.794;2023-07-13T13:27:41;101226.00;;;25.40
5571;BMP180;2808;51.240;6.794;2023-07-13T13:30:16;101227.00;;;25.20
5571;BMP180;2808;51.240;6.794;2023-07-13T13:32:46;101230.00;;;25.00
5571;BMP180;2808;51.240;6.794;2023-07-13T13:35:18;101234.00;;;24.80
5571;BMP180;2808;51.240;6.794;2023-07-13T13:37:48;101231.00;;;24.80
5571;BMP180;2808;51.240;6.794;2023-07-13T13:40:18;101240.00;;;24.50
5571;BMP180;2808;51.240;6.794;2023-07-13T13:42:46;101243.00;;;24.50
5571;BMP180;2808;51.240;6.794;2023-07-13T13:45:13;101229.00;;;24.40
5571;BMP180;2808;51.240;6.794;2023-07-13T13:47:44;101229.00;;;24.40
5571;BMP180;2808;51.240;6.794;2023-07-13T13:50:16;101221.00;;;24.70
5571;BMP180;2808;51.240;6.794;2023-07-13T13:52:44;101234.00;;;25.00
5571;BMP180;2808;51.240;6.794;2023-07-13T13:55:17;101236.00;;;25.10
5571;BMP180;2808;51.240;6.794;2023-07-13T13:57:46;101241.00;;;25.20
5571;BMP180;2808;51.240;6.794;2023-07-13T14:00:15;101237.00;;;25.10
5571;BMP180;2808;51.240;6.794;2023-07-13T14:02:46;101242.00;;;25.10
5571;BMP180;2808;51.240;6.794;2023-07-13T14:05:17;101241.00;;;25.20
5571;BMP180;2808;51.240;6.794;2023-07-13T14:07:47;101239.00;;;25.20
5571;BMP180;2808;51.240;6.794;2023-07-13T14:20:12;101241.00;;;25.60
5571;BMP180;2808;51.240;6.794;2023-07-13T14:22:40;101244.00;;;25.50
5571;BMP180;2808;51.240;6.794;2023-07-13T14:25:11;101241.00;;;25.40
5571;BMP180;2808;51.240;6.794;2023-07-13T14:27:41;101237.00;;;25.20
5571;BMP180;2808;51.240;6.794;2023-07-13T14:30:14;101245.00;;;25.20
5571;BMP180;2808;51.240;6.794;2023-07-13T14:32:41;101240.00;;;25.10
5571;BMP180;2808;51.240;6.794;2023-07-13T14:35:13;101241.00;;;25.00
5571;BMP180;2808;51.240;6.794;2023-07-13T14:37:40;101243.00;;;24.90
5571;BMP180;2808;51.240;6.794;2023-07-13T14:40:13;101250.00;;;24.90
5571;BMP180;2808;51.240;6.794;2023-07-13T14:42:41;101243.00;;;24.80
5571;BMP180;2808;51.240;6.794;2023-07-13T14:45:13;101243.00;;;24.80
5571;BMP180;2808;51.240;6.794;2023-07-13T14:47:42;101243.00;;;24.80
5571;BMP180;2808;51.240;6.794;2023-07-13T14:50:16;101250.00;;;24.80
5571;BMP180;2808;51.240;6.794;2023-07-13T14:52:45;101241.00;;;24.60
5571;BMP180;2808;51.240;6.794;2023-07-13T14:55:15;101256.00;;;24.50
5571;BMP180;2808;51.240;6.794;2023-07-13T14:57:43;101257.00;;;24.40
5571;BMP180;2808;51.240;6.794;2023-07-13T15:00:16;101263.00;;;24.30